Strona główna
METAR-TAF:

METAR-TAF

Lotnisko :

Port lotniczy Al-Arisz

Arisz, Egipt

Szerokość geograficzna: 31-05N, Długość geograficzna: 033-49E, wysokość: 31 m

METAR: brakujący

czas: 19:14 (17:14 UTC)

Prognoza

Raport powstał 6 godziny i 14 minut temu, godzina 11:00 UTC
Prognoza ważna od 08 godzina 12 UTC do 09 godzina 18 UTC
Wiatr 8 kt od północny zachód
Widzialność 10 km lub więcej
Rozproszone chmury na wysokości 2500 ft

TAF: HEAR 081100Z 0812/0918 32008KT 9999 SCT025

Obserwacja i prognoza pogody dla ponad 4000 lotnisk (raport METAR i TAF).

Dostępne stacje oznaczono żółtymi i czerwonymi punktami na mapie.

Najedź kursorem aby zobaczyć nazwę stacji.

Kliknij aby zobaczyć obserwacje i prognozy pogody.

Aby zmienić mapę: kliknij na zielony przycisk z czarnym krzyżykiem, aby powiększyć; na zielony przycisk z myślnikiem, aby pomniejszyć; na zielone strzałki, aby przejść do map sąsiednich.


METAR-TAF: